Calumet, IA

03:32 PM CST del 06 Marzo 2015 (GMT -0600)
Orange City Municipal | Change Station
CLOSE
Current Station
Aeroporto
Location: Orange City,
Altitudine: 1414 ft
Stazioni meteo nelle vicinanze

Alt. 1414 ft 42.99 °N, 96.06 °W | Updated 17 minutes ago

Parzialmente nuvoloso
Parzialmente nuvoloso
50 °F
Sembra 50 °F
N
14
Vento Variabile Vento da NO

Oggi
Massima -- | Minima -- °F
--% Possibilità di precip.
Ieri
Massima -- | Minima -- °F
Precip. -- in
6:50 AM 6:17 PM
Luna piena, 99% visible
Pressione 30.09 in
Visibilità 10.0 miglia
Nuvole Sereno
Punto di rugiada 21 °F
Umidità 32%
Piovosità 0.00 in
Spessore del manto nevoso Non disponibile.
Raggi UV 3 fuori da 12
Polline 2.30 fuori da 12
Qualità dell'aria Non disponibile.
Flu Activity Non disponibile.
METAR KORC 062115Z AUTO 32012KT 10SM CLR 10/M06 A3009 RMK AO2

More Conditions Fewer Conditions

Pressione 30.09 in
Visibilità 10.0 miglia
Nuvole Sereno
Punto di rugiada 21 °F
Umidità 32%
Piovosità 0.00 in
Spessore del manto nevoso Non disponibile.
Raggi UV 3 fuori da 12
Polline 2.30 fuori da 12
Qualità dell'aria Non disponibile.
Flu Activity Non disponibile.
METAR KORC 062115Z AUTO 32012KT 10SM CLR 10/M06 A3009 RMK AO2

More Conditions Fewer Conditions

10-Day Weather Forecast

Almanac

Astronomia

Mar. 06, 2015 Alba Tramonto
Ora attuale
Crepuscolo civile
Crepuscolo nautico
Crepuscolo astronomico
Luna
Estensione della luce visibile
Lunghezza del giorno
Tomorrow will be .
, % of the Moon is Illuminated

Gli estremi di oggi

State Highs State Lows

Community

WunderPhotos

Upload Photos

1,803,406 foto caricate!

WunderBlogs® & News

Nearby

Qualità dell'aria

  Qualità dell'aria Indice AQ Inquinante
Not available.

Profondità neve

Stazione Profondità Altitudine

Attività sismica

Città  Distanza Mag. Data & Ora
Minimo Magnitudo Mostrato è 2.5.

Temperature delle acque costiere

Località Temperatura

Stazioni meteo nelle vicinanze